Flight Track Log - Related Links

Times and Time Zones

All times are in EDT time to prevent confusion due to time zone crossing. See the N30483 flight status page for this flight to view local times or setup timezone preferences in your user account.

Time Position Orientation Groundspeed Altitude Reporting Facility
EDT Latitude Longitude Course Direction KTS MPH feet Rate Location/Type
Sat 03:18:11 PM 41.1911 -71.6678 295° West 91 105 1,900  Level Boston Center
Sat 03:19:00 PM 41.1997 -71.6925 295° West 101 116 2,200 436 Climbing Boston Center
Sat 03:20:01 PM 41.2122 -71.7228 299° West 87 100 2,700 443 Climbing Boston Center
Sat 03:21:02 PM 41.2231 -71.7639 289° West 115 132 3,100 422 Climbing Boston Center
Sat 03:22:09 PM 41.2378 -71.8053 295° West 97 112 3,600 422 Climbing Boston Center
Sat 03:23:10 PM 41.2442 -71.8383 284° West 103 119 4,000 397 Climbing Boston Center
Sat 03:24:10 PM 41.2506 -71.8742 283° West 98 113 4,400 246 Climbing Boston Center
Sat 03:25:12 PM 41.2592 -71.9072 289° West 95 109 4,500 47 Climbing Boston Center
Sat 03:26:18 PM 41.2697 -71.9539 287° West 110 127 4,500  Level Boston Center
Sat 03:27:19 PM 41.2783 -71.9872 289° West 101 116 4,500  Level Boston Center
Sat 03:28:20 PM 41.2867 -72.0286 285° West 106 122 4,500  Level Boston Center
Sat 03:29:21 PM 41.2931 -72.0672 282° West 103 119 4,500  Level Boston Center
Sat 03:30:16 PM 41.2975 -72.1003 280° West 102 117 4,500 39 Level Boston Center
Sat 03:31:55 PM 41.3000 -72.1500 274° West 112 129 4,600 39 Climbing New York TRACON
Sat 03:32:49 PM 41.3167 -72.2000 294° West 108 124 4,600  Level New York TRACON
Sat 03:34:00 PM 41.3167 -72.2604 270° West  Level FlightAware Approximate
Sat 03:36:25 PM 41.3333 -72.3333 266° West 104 120 4,600  Level New York TRACON
Sat 03:37:31 PM 41.3333 -72.3667 270° West 107 123 4,600  Level New York TRACON
Sat 03:38:25 PM 41.3333 -72.4000 270° West 105 121 4,600  Level New York TRACON
Sat 03:39:25 PM 41.3333 -72.4500 270° West 105 121 4,600  Level New York TRACON
Sat 03:40:26 PM 41.3167 -72.4833 236° Southwest 102 117 4,600  Level New York TRACON
Sat 03:41:00 PM 41.3034 -72.6173 266° West  Level FlightAware Approximate
Sat 03:41:26 PM 41.3167 -72.5167 270° West 100 115 4,600  Level New York TRACON
Sat 03:42:25 PM 41.3167 -72.5500 270° West 108 124 4,600  Level New York TRACON
Sat 03:43:25 PM 41.3167 -72.6000 270° West 111 128 4,600  Level New York TRACON
Sat 03:44:25 PM 41.3167 -72.6333 270° West 107 123 4,600  Level New York TRACON
Sat 03:45:26 PM 41.3167 -72.6667 270° West 108 124 4,600  Level New York TRACON
Sat 03:46:26 PM 41.3167 -72.7167 270° West 109 125 4,600  Level New York TRACON
Sat 03:47:26 PM 41.3167 -72.7500 270° West 110 127 4,600  Level New York TRACON
Sat 03:48:25 PM 41.3167 -72.7833 270° West 109 125 4,600  Level New York TRACON
Sat 03:49:25 PM 41.3167 -72.8333 270° West 108 124 4,600  Level New York TRACON
Sat 03:50:26 PM 41.3167 -72.8667 270° West 105 121 4,600  Level New York TRACON
Sat 03:51:26 PM 41.3333 -72.9000 304° West 108 124 4,600  Level New York TRACON
Sat 03:52:25 PM 41.3333 -72.9500 270° West 108 124 4,600  Level New York TRACON
Sat 03:53:26 PM 41.3333 -72.9833 270° West 108 124 4,600  Level New York TRACON
Sat 03:54:25 PM 41.3333 -73.0167 270° West 106 122 4,600  Level New York TRACON
Sat 03:55:26 PM 41.3500 -73.0667 294° West 105 121 4,600  Level New York TRACON
Sat 03:56:26 PM 41.3500 -73.1000 270° West 104 120 4,600  Level New York TRACON
Sat 03:57:25 PM 41.3500 -73.1333 270° West 104 120 4,600  Level New York TRACON
Sat 03:59:00 PM 41.3500 -73.1985 270° West  Level FlightAware Approximate
Sat 04:06:00 PM 41.3667 -73.4667 285° West  Level FlightAware Approximate
Sat 04:07:00 PM 41.3715 -73.4822 285° West  Level Estimated
Sat 04:08:00 PM 41.3715 -73.4822 285° West  Level Estimated
Sat 04:09:00 PM 41.3715 -73.4822 285° West  Level Estimated
Sat 04:10:00 PM 41.3715 -73.4822 285° West  Level Estimated
Sat 04:11:00 PM 41.3715 -73.4822 285° West  Level Estimated
Sat 04:12:00 PM 41.3715 -73.4822 285° West  Level Estimated
Sat 04:13:00 PM 41.3715 -73.4822 285° West  Level Estimated
Sat 04:14:00 PM 41.3715 -73.4822 285° West  Level Estimated
Sat 04:15:00 PM 41.3715 -73.4822 285° West  Level Estimated
Sat 04:16:00 PM 41.3715 -73.4822 285° West  Level Estimated
Sat 04:17:00 PM 41.3715 -73.4822 285° West  Level Estimated
Sat 04:18:00 PM 41.3715 -73.4822 285° West  Level Estimated
Sat 04:19:00 PM 41.3715 -73.4822 285° West  Level Estimated
Sat 04:20:00 PM 41.3715 -73.4822 285° West  Level Estimated
Sat 04:21:00 PM 41.3715 -73.4822 285° West  Level Estimated
Sat 04:22:00 PM 41.3715 -73.4822 285° West  Level Estimated

Login

Don't have an account? Register now (free) for customized features, flight alerts, and more!